• Join FlightAware (Why Join?)
  • Login
  • US Flag GB Flag 
16:12 EST


 

Airport Tracker/Info


-or-


 

Live Flight TrackerFlight Track Log ✈ UAL335 ✈ 22-Apr-2013 ✈ KSMF - KDEN

Flight Track Log - Related Links

Times and Time Zones

All times are in EDT time to prevent confusion due to time zone crossing. See the UAL335 flight status page for this flight to view local times or setup timezone preferences in your user account.

Time Position Orientation Groundspeed Altitude Reporting Facility
EDT Latitude Longitude Course Direction KTS MPH feet Rate Location/Type
08:39 38.7344 -121.5783 78° East 172 198 1,800  Level Oakland Center
08:40 38.7119 -121.5256 119° Southeast 241 277 3,500 2,100 Climbing Oakland Center
08:41 38.4954 -121.2655 80° East  Level FlightAware Approximate
08:41 38.6442 -121.4842 154° Southeast 281 323 6,100  Level Oakland Center
08:42 38.5309 -121.1125 76° East  Level FlightAware Approximate
08:42 38.6136 -121.3944 114° Southeast 310 357 9,300  Level Oakland Center
08:43 38.5601 -120.9567 78° East  Level FlightAware Approximate
08:43 38.6133 -121.2836 90° East 322 371 11,600  Level Oakland Center
08:44 38.5862 -120.7999 78° East  Level FlightAware Approximate
08:44 38.6136 -121.1533 90° East 370 426 13,500  Level Oakland Center
08:45 38.6131 -121.0258 90° East 392 451 15,700 2,220 Climbing Oakland Center
08:46 38.6136 -120.8792 90° East 408 470 18,000 2,100 Climbing Oakland Center
08:47 38.6119 -120.7289 91° East 418 481 20,000 1,920 Climbing Oakland Center
08:48 38.6111 -120.5736 90° East 433 498 21,900 1,740 Climbing Oakland Center
08:49 38.6103 -120.4128 90° East 449 517 23,500 1,680 Climbing Oakland Center
08:50 38.6092 -120.2506 90° East 455 524 25,300 1,560 Climbing Oakland Center
08:51 38.6078 -120.0856 91° East 462 532 26,700 1,260 Climbing Oakland Center
08:52 38.6078 -119.9175 90° East 471 542 27,900 1,260 Climbing Oakland Center
08:53 38.6019 -119.7203 92° East 486 559 29,300 1,200 Climbing Oakland Center
08:54 38.5997 -119.5464 91° East 491 565 30,400 1,500 Climbing Oakland Center
08:55 38.5956 -119.3728 92° East 490 564 32,300 1,440 Climbing Oakland Center
08:56 38.5931 -119.2039 91° East 480 552 33,400 1,020 Climbing Oakland Center
08:57 38.5897 -119.0317 91° East 487 560 34,400 1,080 Climbing Oakland Center
08:58 38.5864 -118.8611 91° East 484 557 35,600 1,140 Climbing Oakland Center
08:59 38.5817 -118.6919 92° East 480 552 36,700 660 Climbing Oakland Center
09:00 38.5786 -118.5236 91° East 478 550 37,000 120 Climbing Oakland Center
09:01 38.5744 -118.3578 92° East 472 543 37,000  Level Oakland Center
09:02 38.5703 -118.1906 92° East 473 544 37,000  Level Oakland Center
09:03 38.5658 -118.0300 92° East 473 544 37,000  Level Oakland Center
09:04 38.5533 -117.8603 95° East 477 549 37,000  Level Oakland Center
09:05 38.5411 -117.6914 95° East 476 548 37,000  Level Oakland Center
09:06 38.5278 -117.5214 96° East 478 550 37,000  Level Oakland Center
09:07 38.5144 -117.3497 96° East 481 554 37,000  Level Oakland Center
09:08 38.4989 -117.1425 95° East 483 556 37,000  Level Salt Lake Center
09:09 38.4878 -117.0061 96° East 480 552 37,000  Level Oakland Center
09:10 38.4739 -116.8342 96° East 482 555 37,000  Level Oakland Center
09:11 38.4600 -116.6614 96° East 485 558 37,000  Level Oakland Center
09:12 38.4422 -116.4564 96° East 482 555 37,000  Level Salt Lake Center
09:13 38.4275 -116.2819 96° East 491 565 37,000  Level Salt Lake Center
09:14 38.4147 -116.1436 97° East 491 565 37,000  Level Oakland Center
09:15 38.3975 -115.9344 96° East 496 571 37,000  Level Salt Lake Center
09:16 38.3817 -115.7592 97° East 497 572 37,000  Level Salt Lake Center
09:17 38.3658 -115.5844 97° East 498 573 37,000  Level Salt Lake Center
09:18 38.3497 -115.4103 97° East 494 568 37,100  Climbing Salt Lake Center
09:19 38.3314 -115.2153 97° East 496 571 37,000 -60 Descending Salt Lake Center
09:20 38.3147 -115.0419 97° East 495 570 37,000  Level Salt Lake Center
09:21 38.2967 -114.8692 98° East 494 568 37,000  Level Salt Lake Center
09:22 38.2800 -114.6953 97° East 495 570 37,000  Level Salt Lake Center
09:23 38.2631 -114.5189 97° East 502 578 37,000  Level Salt Lake Center
09:24 38.2547 -114.3450 93° East 496 571 37,000  Level Salt Lake Center
09:25 38.2703 -114.1711 83° East 493 567 37,000  Level Salt Lake Center
09:26 38.2847 -113.9969 84° East 495 570 37,000  Level Salt Lake Center
09:27 38.2983 -113.8206 84° East 498 573 37,000  Level Salt Lake Center
09:29 38.3128 -113.6461 84° East 497 572 37,000  Level Salt Lake Center
09:30 38.3267 -113.4686 84° East 501 577 37,000  Level Salt Lake Center
09:31 38.3406 -113.2917 84° East 501 577 37,000  Level Salt Lake Center
09:32 38.3536 -113.1153 85° East 500 575 37,000  Level Salt Lake Center
09:33 38.3653 -112.9372 85° East 501 577 37,000  Level Salt Lake Center
09:34 38.3697 -112.7586 88° East 502 578 37,000  Level Salt Lake Center
09:35 38.3758 -112.5797 87° East 503 579 37,000  Level Salt Lake Center
09:36 38.3817 -112.3997 88° East 506 582 37,000  Level Salt Lake Center
09:37 38.3869 -112.1817 88° East 512 589 37,000  Level Salt Lake Center
09:38 38.3931 -112.0011 87° East 511 588 37,000  Level Salt Lake Center
09:39 38.3972 -111.8186 88° East 515 593 37,000  Level Salt Lake Center
09:40 38.4008 -111.6364 88° East 514 592 37,100  Climbing Salt Lake Center
09:41 38.4056 -111.4578 88° East 508 585 37,000 -60 Descending Salt Lake Center
09:42 38.4089 -111.2797 89° East 504 580 37,000  Level Salt Lake Center
09:43 38.4125 -111.1014 88° East 504 580 37,000  Level Salt Lake Center
09:44 38.4150 -110.9258 89° East 503 579 37,000  Level Salt Lake Center
09:45 38.4178 -110.7258 89° East 507 583 37,000  Level Salt Lake Center
09:46 38.4211 -110.5522 89° East 511 588 37,100  Climbing Salt Lake Center
09:47 38.4242 -110.3778 89° East 511 588 37,000 -60 Descending Denver Center
09:48 38.4300 -110.1761 88° East 514 592 37,000  Level Salt Lake Center
09:49 38.4317 -110.0008 89° East 513 590 37,000  Level Denver Center
09:50 38.4342 -109.8253 89° East 518 596 37,000  Level Denver Center
09:51 38.4375 -109.6239 89° East 512 589 37,000  Level Denver Center
09:52 38.4408 -109.4506 89° East 512 589 37,000  Level Denver Center
09:53 38.4422 -109.2736 89° East 519 597 37,000  Level Denver Center
09:54 38.4444 -109.0672 89° East 523 602 37,100  Climbing Denver Center
09:55 38.4461 -108.8931 89° East 517 595 37,000 -60 Descending Denver Center
09:56 38.4378 -108.7194 93° East 515 593 37,000  Level Denver Center
09:57 38.3653 -108.5333 116° Southeast 523 602 37,000  Level Denver Center
09:58 38.2967 -108.3789 119° Southeast 524 603 37,000  Level Denver Center
09:59 38.2161 -108.1958 119° Southeast 530 610 37,000  Level Denver Center
10:00 38.1658 -108.0325 111° Southeast 531 611 37,000  Level Denver Center
10:01 38.1925 -107.8603 79° East 524 603 37,000  Level Denver Center
10:02 38.2758 -107.7000 56° Northeast 492 566 37,000  Level Denver Center
10:03 38.3483 -107.5594 57° Northeast 494 568 37,000  Level Denver Center
10:04 38.4206 -107.4192 57° Northeast 496 571 37,000  Level Denver Center
10:05 38.5044 -107.2578 56° Northeast 491 565 37,000  Level Denver Center
10:06 38.5836 -107.1064 56° Northeast 499 574 37,000  Level Denver Center
10:07 38.6608 -106.9556 57° Northeast 507 583 37,000  Level Denver Center
10:08 38.7378 -106.8017 57° Northeast 514 592 37,000 -720 Level Denver Center
10:09 38.8161 -106.6489 57° Northeast 515 593 35,600 -2,100 Descending Denver Center
10:10 38.8964 -106.4900 57° Northeast 493 567 32,700 -2,940 Descending Denver Center
10:11 38.9678 -106.3458 57° Northeast 499 574 29,700 -2,700 Descending Denver Center
10:12 39.0542 -106.1739 57° Northeast 511 588 27,200 -2,580 Descending Denver Center
10:13 39.1347 -106.0108 57° Northeast 513 590 24,500 -2,160 Descending Denver Center
10:14 39.2056 -105.8661 58° Northeast 479 551 22,900 -2,100 Descending Denver Center
10:15 39.2722 -105.7342 57° Northeast 442 509 20,200 -2,220 Descending Denver Center
10:16 39.3303 -105.6117 58° Northeast 397 457 18,400 -1,440 Descending Denver Center
10:17 39.3867 -105.4978 57° Northeast 380 437 17,300 -1,200 Descending Denver Center
10:18 39.4008 -105.3692 82° East 367 422 16,000 -1,500 Descending Denver Center
10:19 39.4064 -105.2431 87° East 352 405 14,300 -1,380 Descending Denver Center
10:20 39.4119 -105.1139 87° East 333 383 13,200 -660 Descending Denver Center
10:21 39.4172 -105.0050 86° East 308 354 13,000 -540 Descending Denver Center
10:22 39.4400 -104.9111 73° East 257 296 12,100 -600 Descending Denver Center
10:23 39.4800 -104.8342 56° Northeast 268 308 11,800 -780 Descending Denver Center
10:25 39.5428 -104.7942 26° Northeast 253 291 10,600 -1,320 Descending Denver Center
10:26 39.6053 -104.7550 26° Northeast 233 268 9,100 -1,320 Descending Denver Center
10:27 39.6600 -104.7197 26° Northeast 222 255 7,900 -840 Descending Denver Center
10:28 39.7103 -104.6867 27° Northeast 206 237 7,400 -540 Descending Denver Center